Agios Rafael — SY3540 — position and weather

sailwx.info

Track history (hours):
 
Tides and Currents Weather Stations Pressure Air Temp Water Temp Dewpoint Dewpoint Depression Visibility Wind Speed Wind Dir Waves Ship Positions

Agios Rafael

Last reported at 2017-Dec-16 08:50 UTC. Time now 2017-Dec-17 04:09 UTC.
Position N 40°50' E 025°53'.

Type: Cargo ship. MMSI: 237621300.

Date/timePositionNaut miles runAvg speedWind from/ knotsBaromVisibWave heightAir tempDewpointWater temp
2017-Dec-16 08:50N 40°50' E 025°53'0 0.0
2017-Dec-16 08:30N 40°50' E 025°53'0 0.0
2017-Dec-16 08:00N 40°50' E 025°53'0 0.0
2017-Dec-16 07:30N 40°50' E 025°53'0 0.0
2017-Dec-16 07:00N 40°50' E 025°53'41 9.1
2017-Dec-16 02:30N 40°20' E 025°16'1710.0
2017-Dec-16 00:49N 40°07' E 025°02'310.4
2017-Dec-16 00:29N 40°05' E 024°59'1210.2
2017-Dec-15 23:19N 39°57' E 024°48'310.0
2017-Dec-15 23:00N 39°55' E 024°44'27 9.7
2017-Dec-15 20:15N 39°40' E 024°16'7 9.6
2017-Dec-15 19:33N 39°36' E 024°09'97 2.0
2017-Dec-13 18:56N 38°01' E 024°36'4 9.2
2017-Dec-13 18:30N 37°58' E 024°35'4 9.0
2017-Dec-13 18:00N 37°53' E 024°35'5 9.5
2017-Dec-13 17:30N 37°48' E 024°35'5 9.1
2017-Dec-13 17:00N 37°44' E 024°34'5 9.0
2017-Dec-13 16:30N 37°39' E 024°34'5 9.2
2017-Dec-13 16:00N 37°35' E 024°33'4 8.8
2017-Dec-13 15:30N 37°30' E 024°32'5 9.1
2017-Dec-13 15:00N 37°26' E 024°31'5 9.4
2017-Dec-13 14:30N 37°21' E 024°29'5 9.2
2017-Dec-13 14:00N 37°17' E 024°27'5 9.0
2017-Dec-13 13:30N 37°13' E 024°25'5 9.0
2017-Dec-13 13:00N 37°09' E 024°24'4 8.9
2017-Dec-13 12:30N 37°04' E 024°23'5 9.0
2017-Dec-13 12:00N 36°60' E 024°23'4 8.9
2017-Dec-13 11:30N 36°55' E 024°23'5 9.0
2017-Dec-13 11:00N 36°51' E 024°23'5 9.1
2017-Dec-13 10:30N 36°46' E 024°23'4 8.4
2017-Dec-13 10:00N 36°43' E 024°26'2 0.3
2017-Dec-13 04:58N 36°43' E 024°28'0 0.0
2017-Dec-13 04:20N 36°43' E 024°28'0 0.0
2017-Dec-12 15:38N 36°43' E 024°28'0 2.1
2017-Dec-12 15:30N 36°43' E 024°28'5 8.0
2017-Dec-12 14:55N 36°46' E 024°24'4 9.4
2017-Dec-12 14:30N 36°49' E 024°28'5 9.2
2017-Dec-12 14:00N 36°51' E 024°33'5 9.2
2017-Dec-12 13:30N 36°52' E 024°39'5 9.8
2017-Dec-12 13:00N 36°51' E 024°45'5 9.7
2017-Dec-12 12:30N 36°51' E 024°51'5 9.7
2017-Dec-12 12:00N 36°50' E 024°57'5 9.8
2017-Dec-12 11:30N 36°50' E 025°03'5 9.6
2017-Dec-12 11:00N 36°50' E 025°09'5 9.7
2017-Dec-12 10:30N 36°49' E 025°15'5 9.6
2017-Dec-12 10:00N 36°49' E 025°21'5 9.8
2017-Dec-12 09:30N 36°47' E 025°27'5 9.8
2017-Dec-12 09:00N 36°47' E 025°33'5 9.9
2017-Dec-12 08:30N 36°46' E 025°39'5 9.8
2017-Dec-12 08:00N 36°45' E 025°45'5 9.8
2017-Dec-12 07:30N 36°44' E 025°51'5 9.5
2017-Dec-12 07:00N 36°43' E 025°57'5 9.4
2017-Dec-12 06:30N 36°43' E 026°03'5 9.5
2017-Dec-12 06:00N 36°42' E 026°08'5 9.7
2017-Dec-12 05:30N 36°42' E 026°14'510.2
2017-Dec-12 05:00N 36°41' E 026°21'5 9.8
2017-Dec-12 04:30N 36°40' E 026°27'510.3
2017-Dec-12 04:00N 36°39' E 026°33'  
Track history (hours):
 
Tides and Currents Weather Stations Pressure Air Temp Water Temp Dewpoint Dewpoint Depression Visibility Wind Speed Wind Dir Waves Ship Positions

Agios Rafael

Last reported at 2017-Dec-16 08:50 UTC. Time now 2017-Dec-17 04:09 UTC.
Position N 40°50' E 025°53'.

Type: Cargo ship. MMSI: 237621300.

Date/timePositionNaut miles runAvg speedWind from/ knotsBaromVisibWave heightAir tempDewpointWater temp
2017-Dec-16 08:50N 40°50' E 025°53'0 0.0
2017-Dec-16 08:30N 40°50' E 025°53'0 0.0
2017-Dec-16 08:00N 40°50' E 025°53'0 0.0
2017-Dec-16 07:30N 40°50' E 025°53'0 0.0
2017-Dec-16 07:00N 40°50' E 025°53'41 9.1
2017-Dec-16 02:30N 40°20' E 025°16'1710.0
2017-Dec-16 00:49N 40°07' E 025°02'310.4
2017-Dec-16 00:29N 40°05' E 024°59'1210.2
2017-Dec-15 23:19N 39°57' E 024°48'310.0
2017-Dec-15 23:00N 39°55' E 024°44'27 9.7
2017-Dec-15 20:15N 39°40' E 024°16'7 9.6
2017-Dec-15 19:33N 39°36' E 024°09'97 2.0
2017-Dec-13 18:56N 38°01' E 024°36'4 9.2
2017-Dec-13 18:30N 37°58' E 024°35'4 9.0
2017-Dec-13 18:00N 37°53' E 024°35'5 9.5
2017-Dec-13 17:30N 37°48' E 024°35'5 9.1
2017-Dec-13 17:00N 37°44' E 024°34'5 9.0
2017-Dec-13 16:30N 37°39' E 024°34'5 9.2
2017-Dec-13 16:00N 37°35' E 024°33'4 8.8
2017-Dec-13 15:30N 37°30' E 024°32'5 9.1
2017-Dec-13 15:00N 37°26' E 024°31'5 9.4
2017-Dec-13 14:30N 37°21' E 024°29'5 9.2
2017-Dec-13 14:00N 37°17' E 024°27'5 9.0
2017-Dec-13 13:30N 37°13' E 024°25'5 9.0
2017-Dec-13 13:00N 37°09' E 024°24'4 8.9
2017-Dec-13 12:30N 37°04' E 024°23'5 9.0
2017-Dec-13 12:00N 36°60' E 024°23'4 8.9
2017-Dec-13 11:30N 36°55' E 024°23'5 9.0
2017-Dec-13 11:00N 36°51' E 024°23'5 9.1
2017-Dec-13 10:30N 36°46' E 024°23'4 8.4
2017-Dec-13 10:00N 36°43' E 024°26'2 0.3
2017-Dec-13 04:58N 36°43' E 024°28'0 0.0
2017-Dec-13 04:20N 36°43' E 024°28'0 0.0
2017-Dec-12 15:38N 36°43' E 024°28'0 2.1
2017-Dec-12 15:30N 36°43' E 024°28'5 8.0
2017-Dec-12 14:55N 36°46' E 024°24'4 9.4
2017-Dec-12 14:30N 36°49' E 024°28'5 9.2
2017-Dec-12 14:00N 36°51' E 024°33'5 9.2
2017-Dec-12 13:30N 36°52' E 024°39'5 9.8
2017-Dec-12 13:00N 36°51' E 024°45'5 9.7
2017-Dec-12 12:30N 36°51' E 024°51'5 9.7
2017-Dec-12 12:00N 36°50' E 024°57'5 9.8
2017-Dec-12 11:30N 36°50' E 025°03'5 9.6
2017-Dec-12 11:00N 36°50' E 025°09'5 9.7
2017-Dec-12 10:30N 36°49' E 025°15'5 9.6
2017-Dec-12 10:00N 36°49' E 025°21'5 9.8
2017-Dec-12 09:30N 36°47' E 025°27'5 9.8
2017-Dec-12 09:00N 36°47' E 025°33'5 9.9
2017-Dec-12 08:30N 36°46' E 025°39'5 9.8
2017-Dec-12 08:00N 36°45' E 025°45'5 9.8
2017-Dec-12 07:30N 36°44' E 025°51'5 9.5
2017-Dec-12 07:00N 36°43' E 025°57'5 9.4
2017-Dec-12 06:30N 36°43' E 026°03'5 9.5
2017-Dec-12 06:00N 36°42' E 026°08'5 9.7
2017-Dec-12 05:30N 36°42' E 026°14'510.2
2017-Dec-12 05:00N 36°41' E 026°21'5 9.8
2017-Dec-12 04:30N 36°40' E 026°27'510.3
2017-Dec-12 04:00N 36°39' E 026°33'  

Dump ship's entire track history